Briefing drone pour Eymet

Rechercher une autre localisation

Conditions de vol :


Nous sommes le : Mercredi 14 avril 2021
Il est 23:08 UTC (01:08 LT)

Lever de soleil : 04:48 UTC (06:48 LT)
Coucher de soleil : 19:08 UTC (21:08 LT)

Météo

L'essentiel des conditions de vol

VIGILANCE MÉTÉO FRANCE - Dordogne (24)
Pas de vigilances particulieres
CARTE TEMSI
CARTES DES FRONTS
METAR de LFBE
LFBE 132300Z AUTO VRB02KT CAVOK 06/M01 Q1025

Date d'émission: 13/04/2021
Heure d'émission: 23:00 UTC
Vent: Variable 2 KT (4 km/h)
Visibilité horizontale: > 10 km
Plafond : Plafond et visibilité OK (CAVOK)
Température: 6 °C
Point de rosée: -1 °C
Humidité: 61%
Pression (QNH): 1025 hPa
TAF de LFBE
LFBE 132010Z 1320/1412 CNL

Conditions prévues :

Heure d'émission : Bulletin éffectué le 13 à 20:00 UTC
Prévision : Valide du 13 a 20:00 UTC au 14 a 12:00 UTC
Nuages : à 0ft (0 m)
WEBCAM POUR EYMET

Réglementation

Voler en sécurité

CARTES AERONAUTIQUE 1/500.000
CARTES VAC (LFBE)
SUP AIP




Chargement des AIP...
NOTAM (EYMET + Terrain à proximité / FIR )




Chargement des NOTAMS...
CONTACT PREFECTURE 24


Avertissement : Les données mises à disposition sont indicatives. Oxygène Drone ne pourra être tenu responsable de dégâts causés aux biens et aux personnes.